Time;durP1;ratioP1;P1;durP2;ratioP2;P2;SDS_P1;SDS_P2;PMS_P1;PMS_P2;Temp;Humidity;BMP_temperature;BMP_pressure;BME280_temperature;BME280_humidity;BME280_pressure;Samples;Min_cycle;Max_cycle;Signal;HPM_P1;HPM_P2
2023/02/27 00:02:14;;;;;;;2.10;1.07;;;-0.40;99.40;;;0.24;94.18;98767.97;5039923;28;20467;-75
2023/02/27 00:04:47;;;;;;;1.27;1.17;;;-0.50;99.40;;;0.17;93.84;98762.41;5036757;28;20599;-76
2023/02/27 00:07:16;;;;;;;2.40;1.07;;;-0.50;99.30;;;0.20;94.28;98767.34;5037563;28;20569;-75
2023/02/27 00:09:45;;;;;;;2.73;1.30;;;-0.50;99.50;;;0.13;94.91;98762.72;5038818;28;21034;-76
2023/02/27 00:12:16;;;;;;;1.00;0.90;;;-0.60;99.60;;;0.10;95.38;98761.19;5038480;28;20587;-76
2023/02/27 00:14:46;;;;;;;1.73;1.10;;;-0.50;99.50;;;0.16;94.33;98763.34;5039942;28;20483;-76
2023/02/27 00:17:16;;;;;;;1.23;1.10;;;-0.50;99.20;;;0.20;93.91;98762.22;5040185;28;20469;-76
2023/02/27 00:19:46;;;;;;;0.90;0.90;;;-0.50;99.10;;;0.15;94.55;98763.44;5038047;28;20498;-76
2023/02/27 00:22:16;;;;;;;3.27;1.30;;;-0.50;99.50;;;0.12;94.38;98763.63;5039967;28;20533;-76
2023/02/27 00:24:47;;;;;;;4.00;1.20;;;-0.50;99.40;;;0.09;93.97;98759.53;5038900;28;20555;-75
2023/02/27 00:27:16;;;;;;;1.63;1.17;;;-0.50;99.10;;;0.07;94.61;98766.50;5039185;28;20468;-75
2023/02/27 00:29:47;;;;;;;2.93;1.40;;;-0.60;99.50;;;0.07;94.71;98766.50;5040613;28;20524;-75
2023/02/27 00:32:17;;;;;;;1.33;1.13;;;-0.60;99.50;;;0.05;94.94;98768.38;5039084;28;20457;-75
2023/02/27 00:34:48;;;;;;;2.60;1.63;;;-0.60;99.50;;;-0.02;95.90;98767.97;5038709;28;20464;-75
2023/02/27 00:37:19;;;;;;;1.43;1.20;;;-0.70;99.40;;;0.02;95.19;98768.59;5040640;28;20536;-76
2023/02/27 00:39:49;;;;;;;2.17;1.27;;;-0.60;99.20;;;0.02;94.66;98763.44;5038525;28;20511;-76
2023/02/27 00:42:17;;;;;;;1.87;1.13;;;-0.60;99.20;;;0.02;94.34;98763.44;5040046;28;20453;-75
2023/02/27 00:44:47;;;;;;;1.47;1.37;;;-0.70;99.20;;;0.03;94.79;98764.28;5040415;28;20610;-76
2023/02/27 00:47:17;;;;;;;2.27;0.97;;;-0.60;99.30;;;0.04;94.23;98771.88;5041292;28;20597;-75
2023/02/27 00:49:47;;;;;;;4.67;1.47;;;-0.60;99.30;;;0.01;94.23;98766.94;5042454;28;20542;-75
2023/02/27 00:52:17;;;;;;;6.07;1.10;;;-0.70;99.10;;;0.05;94.23;98767.53;5041863;28;20522;-75
2023/02/27 00:54:47;;;;;;;2.67;1.20;;;-0.70;99.20;;;0.02;94.08;98768.59;5043575;28;20955;-75
2023/02/27 00:57:16;;;;;;;3.03;1.30;;;-0.70;98.90;;;0.00;93.71;98766.09;5042897;28;25782;-75
2023/02/27 00:59:47;;;;;;;3.80;1.10;;;-0.60;99.40;;;0.02;94.10;98767.75;5042083;28;20465;-76
2023/02/27 01:02:17;;;;;;;2.43;0.90;;;-0.70;99.00;;;-0.02;93.26;98773.09;5040804;28;20548;-76
2023/02/27 01:04:47;;;;;;;1.20;1.10;;;-0.70;98.80;;;-0.02;93.37;98760.25;5042597;28;20947;-75
2023/02/27 01:07:17;;;;;;;1.20;1.00;;;-0.70;98.80;;;-0.03;93.11;98765.50;5043776;28;20588;-76
2023/02/27 01:09:46;;;;;;;1.07;1.00;;;-0.70;99.00;;;-0.04;93.11;98756.16;5041436;28;21161;-75
2023/02/27 01:12:16;;;;;;;1.63;1.10;;;-0.80;98.70;;;-0.07;93.22;98762.31;5043570;28;20474;-76
2023/02/27 01:14:46;;;;;;;1.63;1.10;;;-0.80;99.10;;;-0.03;93.69;98765.50;5045584;28;20548;-76
2023/02/27 01:17:16;;;;;;;1.47;1.00;;;-0.80;99.40;;;-0.03;93.27;98756.03;5046031;28;20544;-76
2023/02/27 01:19:46;;;;;;;2.43;1.17;;;-0.70;98.90;;;-0.03;93.12;98756.03;5045385;28;20870;-75
2023/02/27 01:22:16;;;;;;;1.33;0.90;;;-0.80;98.80;;;-0.04;92.48;98761.28;5043011;28;20501;-75
2023/02/27 01:24:45;;;;;;;9.97;0.90;;;-0.80;98.80;;;-0.04;92.62;98758.72;5042722;28;20523;-75
2023/02/27 01:27:15;;;;;;;1.17;1.07;;;-0.80;99.10;;;-0.03;93.31;98761.16;5046269;28;20548;-75
2023/02/27 01:29:45;;;;;;;1.10;1.00;;;-0.80;99.10;;;-0.03;93.19;98760.34;5045197;28;20472;-75
2023/02/27 01:32:15;;;;;;;1.67;1.10;;;-0.70;99.30;;;-0.08;93.50;98757.28;5045439;28;20497;-75
2023/02/27 01:34:44;;;;;;;1.47;0.93;;;-0.70;99.30;;;-0.17;93.24;98758.69;5044537;28;20966;-75
2023/02/27 01:37:15;;;;;;;2.37;1.03;;;-0.80;98.80;;;-0.17;93.66;98763.00;5044957;28;20515;-75
2023/02/27 01:39:45;;;;;;;1.33;0.90;;;-0.80;98.90;;;-0.12;93.46;98758.41;5045327;28;20462;-75
2023/02/27 01:42:21;;;;;;;1.07;0.97;;;-0.80;98.80;;;-0.15;93.10;98756.88;5045714;28;20545;-76
2023/02/27 01:45:33;;;;;;;1.00;1.00;;;-0.80;98.90;;;-0.15;93.51;98759.44;5044019;28;20576;-75
2023/02/27 01:48:10;;;;;;;1.00;0.90;;;-0.80;99.10;;;-0.15;94.00;98762.00;5043915;28;20466;-75
2023/02/27 01:50:46;;;;;;;1.60;1.20;;;-0.80;99.30;;;-0.13;93.96;98767.84;5041478;28;20478;-75
2023/02/27 01:53:19;;;;;;;2.00;1.10;;;-0.90;98.90;;;-0.14;93.87;98762.84;5041099;28;20551;-75
2023/02/27 01:55:50;;;;;;;1.00;0.90;;;-0.90;99.30;;;-0.21;94.73;98759.81;5043136;28;20555;-75
2023/02/27 01:58:19;;;;;;;1.30;1.10;;;-0.90;99.50;;;-0.20;95.00;98752.94;5040375;28;20583;-75
2023/02/27 02:00:49;;;;;;;1.97;1.30;;;-0.90;99.50;;;-0.21;95.75;98757.25;5041134;28;20511;-75
2023/02/27 02:03:29;;;;;;;1.10;1.00;;;-0.90;99.40;;;-0.21;94.60;98752.13;5041733;28;20461;-76
2023/02/27 02:06:04;;;;;;;1.40;1.20;;;-0.90;99.00;;;-0.17;94.34;98761.28;5042216;28;20515;-75
2023/02/27 02:08:42;;;;;;;1.23;1.10;;;-0.90;99.00;;;-0.25;95.85;98755.84;5040259;28;20535;-75
2023/02/27 02:11:15;;;;;;;1.20;1.00;;;-0.80;99.80;;;-0.24;94.64;98748.94;5036878;28;20495;-75
2023/02/27 02:13:45;;;;;;;1.10;1.00;;;-0.90;98.90;;;-0.30;94.15;98746.78;5040868;28;20522;-75
2023/02/27 02:16:48;;;;;;;2.23;1.00;;;-1.00;99.00;;;-0.26;94.48;98753.38;5043323;28;21017;-75
2023/02/27 02:20:06;;;;;;;0.90;0.90;;;-1.00;99.10;;;-0.25;94.35;98750.72;5043049;28;20461;-75
2023/02/27 02:23:29;;;;;;;1.20;1.03;;;-0.90;99.10;;;-0.31;93.08;98745.94;5044158;28;20496;-75
2023/02/27 02:26:49;;;;;;;1.40;1.10;;;-0.90;98.60;;;-0.31;93.24;98745.16;5031250;28;21048;-75
2023/02/27 02:30:15;;;;;;;7.03;1.40;;;-1.00;98.90;;;-0.27;93.57;98741.44;5041204;28;20478;-76
2023/02/27 02:33:45;;;;;;;2.00;1.27;;;-0.90;99.00;;;-0.27;93.66;98736.28;5044318;28;20461;-76
2023/02/27 02:37:13;;;;;;;1.37;1.10;;;-0.90;98.90;;;-0.26;94.16;98738.78;5044403;28;20471;-75
2023/02/27 02:40:12;;;;;;;5.53;1.47;;;-0.90;98.90;;;-0.25;93.52;98745.56;5044378;28;20962;-75
2023/02/27 02:42:54;;;;;;;1.37;1.10;;;-0.90;98.80;;;-0.26;93.27;98741.34;5043606;28;20509;-76
2023/02/27 02:45:31;;;;;;;2.10;1.30;;;-0.90;98.90;;;-0.31;93.64;98740.03;5041563;28;20580;-75
2023/02/27 02:48:13;;;;;;;3.00;1.37;;;-1.00;98.90;;;-0.26;93.58;98743.09;5044333;28;20457;-75
2023/02/27 02:50:50;;;;;;;4.43;0.90;;;-1.00;98.90;;;-0.26;94.18;98740.50;5043603;28;20470;-76
2023/02/27 02:53:31;;;;;;;1.00;0.90;;;-1.00;99.00;;;-0.28;94.35;98739.81;5045624;28;20465;-75
2023/02/27 02:56:18;;;;;;;0.80;0.80;;;-0.90;99.50;;;-0.26;94.49;98741.34;5045423;28;20522;-75
2023/02/27 02:58:58;;;;;;;5.83;1.27;;;-0.90;99.00;;;-0.31;94.03;98737.44;5040588;28;20471;-76
2023/02/27 03:01:36;;;;;;;1.20;1.10;;;-1.00;98.80;;;-0.30;94.19;98742.47;5038815;28;21069;-75
2023/02/27 03:04:12;;;;;;;1.53;1.03;;;-1.00;99.00;;;-0.33;94.36;98741.84;5039475;28;20530;-75
2023/02/27 03:06:50;;;;;;;1.10;1.00;;;-1.00;99.10;;;-0.34;94.54;98738.44;5039485;28;20492;-75
2023/02/27 03:09:26;;;;;;;0.80;0.80;;;-1.00;99.10;;;-0.32;94.13;98748.63;5039279;28;21028;-75
2023/02/27 03:12:00;;;;;;;0.80;0.80;;;-1.00;99.00;;;-0.33;94.21;98749.56;5037835;28;20534;-75
2023/02/27 03:14:38;;;;;;;0.90;0.90;;;-1.00;99.00;;;-0.33;94.44;98764.97;5038764;28;20457;-74
2023/02/27 03:17:17;;;;;;;1.53;1.00;;;-1.00;99.00;;;-0.32;93.97;98753.78;5039636;28;20470;-75
2023/02/27 03:19:56;;;;;;;1.10;1.00;;;-1.00;99.00;;;-0.35;94.71;98759.13;5037453;28;20552;-75
2023/02/27 03:22:32;;;;;;;1.67;0.90;;;-1.10;99.10;;;-0.41;94.58;98759.50;5040386;28;20476;-75
2023/02/27 03:25:06;;;;;;;0.90;0.90;;;-1.20;99.30;;;-0.36;94.70;98754.91;5038207;28;20457;-75
2023/02/27 03:27:44;;;;;;;4.17;0.93;;;-1.10;99.30;;;-0.36;95.50;98749.75;5043172;28;20471;-75
2023/02/27 03:30:23;;;;;;;0.90;0.90;;;-0.90;99.40;;;-0.42;94.72;98765.59;5039733;28;20495;-75
2023/02/27 03:33:01;;;;;;;1.10;1.00;;;-1.00;99.20;;;-0.48;96.24;98765.97;5041975;28;20493;-75
2023/02/27 03:35:46;;;;;;;4.43;1.20;;;-1.20;99.70;;;-0.46;96.43;98761.56;5039739;28;20484;-75
2023/02/27 03:38:26;;;;;;;1.20;1.10;;;-1.20;99.50;;;-0.45;96.65;98761.44;5042442;28;20552;-75
2023/02/27 03:41:10;;;;;;;1.90;1.03;;;-1.20;99.60;;;-0.51;96.20;98762.69;5043119;28;20464;-75
2023/02/27 03:43:53;;;;;;;0.90;0.90;;;-1.20;99.30;;;-0.48;96.42;98761.66;5042171;28;20460;-75
2023/02/27 03:46:27;;;;;;;2.10;1.00;;;-1.20;99.40;;;-0.48;95.73;98764.22;5042971;28;20500;-75
2023/02/27 03:48:56;;;;;;;1.10;1.00;;;-1.20;99.40;;;-0.56;96.02;98771.63;5041507;28;20485;-75
2023/02/27 03:51:27;;;;;;;1.53;0.90;;;-1.20;99.20;;;-0.55;95.47;98768.13;5042896;28;20465;-75
2023/02/27 03:54:04;;;;;;;7.73;1.37;;;-1.20;98.90;;;-0.61;95.67;98771.09;5043093;28;20501;-75
2023/02/27 03:56:42;;;;;;;1.37;1.17;;;-1.30;99.10;;;-0.59;96.22;98777.75;5043070;28;20461;-75
2023/02/27 03:59:14;;;;;;;1.30;1.20;;;-1.30;99.40;;;-0.64;96.40;98772.13;5041714;28;20497;-75
2023/02/27 04:01:44;;;;;;;1.43;1.10;;;-1.40;99.30;;;-0.61;96.43;98771.91;5042527;28;20535;-76
2023/02/27 04:04:15;;;;;;;2.70;1.33;;;-1.30;99.20;;;-0.61;95.99;98773.66;5043128;28;20468;-75
2023/02/27 04:10:16;;;;;;;1.50;1.40;;;-1.30;99.10;;;-0.61;95.53;98789.88;5042519;28;20465;-76
2023/02/27 04:13:20;;;;;;;1.10;1.00;;;-1.30;99.10;;;-0.66;94.70;98784.22;5040778;28;20468;-75
2023/02/27 04:16:23;;;;;;;8.23;3.47;;;-1.30;99.00;;;-0.71;94.05;98790.56;5041871;28;20467;-72
2023/02/27 04:19:12;;;;;;;2.50;1.73;;;-1.30;98.70;;;-0.72;94.07;98789.75;5040341;28;20835;-76
2023/02/27 04:22:00;;;;;;;3.70;1.20;;;-1.40;98.80;;;-0.74;93.87;98799.31;5041995;28;20473;-75
2023/02/27 04:24:42;;;;;;;0.93;0.80;;;-1.30;98.70;;;-0.73;94.64;98792.44;5041994;28;20467;-76
2023/02/27 04:27:31;;;;;;;1.30;1.20;;;-1.40;98.90;;;-0.74;94.35;98801.03;5043872;28;20489;-76
2023/02/27 04:30:16;;;;;;;3.20;1.93;;;-1.40;99.00;;;-0.70;95.11;98792.22;5040981;28;20465;-76
2023/02/27 04:32:56;;;;;;;1.40;1.03;;;-1.40;99.10;;;-0.72;94.02;98802.59;5041632;28;20514;-75
2023/02/27 04:35:34;;;;;;;1.20;0.90;;;-1.40;98.90;;;-0.73;94.38;98803.50;5041693;28;20493;-76
2023/02/27 04:38:15;;;;;;;1.33;0.90;;;-1.40;99.00;;;-0.76;94.59;98806.25;5041893;28;20476;-75
2023/02/27 04:40:50;;;;;;;1.07;0.97;;;-1.40;98.90;;;-0.75;95.78;98807.09;5041995;28;20967;-75
2023/02/27 04:43:22;;;;;;;0.70;0.70;;;-1.50;99.50;;;-0.71;95.78;98813.69;5044642;28;20541;-75
2023/02/27 04:45:54;;;;;;;0.80;0.80;;;-1.40;99.50;;;-0.68;95.88;98814.31;5042258;28;20587;-76
2023/02/27 04:48:31;;;;;;;0.83;0.80;;;-1.40;99.30;;;-0.72;96.00;98818.00;5043886;28;20869;-77
2023/02/27 04:51:10;;;;;;;4.20;1.80;;;-1.40;99.30;;;-0.69;96.46;98820.34;5040982;28;20556;-75
2023/02/27 04:53:48;;;;;;;1.70;1.20;;;-1.40;99.70;;;-0.68;96.61;98822.00;5043280;28;20824;-76
2023/02/27 04:56:24;;;;;;;1.07;1.03;;;-1.40;99.50;;;-0.72;96.19;98822.28;5044899;28;20552;-76
2023/02/27 04:58:58;;;;;;;1.10;1.00;;;-1.40;99.30;;;-0.72;96.07;98823.13;5045515;28;20461;-76
2023/02/27 05:01:38;;;;;;;1.10;0.80;;;-1.40;99.10;;;-0.78;95.98;98823.53;5044582;28;20469;-76
2023/02/27 05:04:15;;;;;;;1.40;1.30;;;-1.50;99.20;;;-0.79;95.96;98816.72;5041878;28;20465;-76
2023/02/27 05:06:49;;;;;;;1.73;1.20;;;-1.40;99.10;;;-0.82;95.65;98826.38;5044274;28;20576;-76
2023/02/27 05:09:28;;;;;;;1.37;1.10;;;-1.50;98.90;;;-0.77;95.70;98827.75;5047273;28;20468;-76
2023/02/27 05:12:03;;;;;;;1.37;1.00;;;-1.50;99.00;;;-0.76;95.62;98828.53;5045568;28;20544;-76
2023/02/27 05:14:38;;;;;;;1.10;1.00;;;-1.40;99.20;;;-0.83;96.66;98828.09;5044566;28;20819;-76
2023/02/27 05:17:15;;;;;;;4.53;1.07;;;-1.50;99.40;;;-0.89;97.09;98822.53;5041534;28;20462;-75
2023/02/27 05:19:47;;;;;;;1.23;1.13;;;-1.50;99.40;;;-0.93;97.15;98831.34;5040976;28;21256;-78
2023/02/27 05:22:30;;;;;;;1.20;1.10;;;-1.50;99.20;;;-0.92;97.74;98840.69;5043666;28;20469;-76
2023/02/27 05:25:12;;;;;;;0.93;0.93;;;-1.50;99.40;;;-0.91;98.08;98838.06;5044036;28;20469;-75
2023/02/27 05:27:51;;;;;;;2.73;1.80;;;-1.50;99.40;;;-0.91;98.17;98838.06;5044664;28;20494;-75
2023/02/27 05:30:27;;;;;;;3.23;1.27;;;-1.50;99.60;;;-0.92;99.30;98835.56;5044631;28;20512;-81
2023/02/27 05:33:05;;;;;;;1.37;1.10;;;-1.60;99.90;;;-0.92;99.79;98838.97;5045090;28;20461;-75
2023/02/27 05:35:46;;;;;;;1.10;0.93;;;-1.60;99.90;;;-0.90;100.00;98844.81;5042549;28;20535;-76
2023/02/27 05:38:22;;;;;;;1.13;1.03;;;-1.60;99.90;;;-0.92;100.00;98845.84;5043503;28;21287;-75
2023/02/27 05:40:58;;;;;;;1.90;1.60;;;-1.60;99.80;;;-0.90;99.95;98847.38;5044178;28;20509;-75
2023/02/27 05:43:33;;;;;;;1.50;1.00;;;-1.60;99.90;;;-0.93;100.00;98857.00;5043993;28;20499;-75
2023/02/27 05:46:10;;;;;;;2.42;1.20;;;-1.60;99.90;;;-0.93;100.00;98850.13;5040620;28;20443;-75
2023/02/27 05:48:47;;;;;;;3.60;1.30;;;-1.60;99.90;;;-0.97;100.00;98843.53;5046544;28;24659;-75
2023/02/27 05:51:21;;;;;;;2.30;1.07;;;-1.70;99.90;;;-1.02;100.00;98853.28;5045585;28;20904;-75
2023/02/27 05:54:00;;;;;;;1.00;1.00;;;-1.70;99.90;;;-1.03;100.00;98844.75;5046397;28;20465;-75
2023/02/27 05:56:33;;;;;;;0.93;0.90;;;-1.70;99.90;;;-1.02;100.00;98855.84;5045996;28;20462;-75
2023/02/27 05:59:10;;;;;;;1.23;1.10;;;-1.80;99.90;;;-1.01;100.00;98847.25;5046453;28;20469;-75
2023/02/27 06:01:40;;;;;;;1.10;1.00;;;-1.70;99.90;;;-0.99;100.00;98850.53;5045406;28;20479;-75
2023/02/27 06:04:10;;;;;;;1.10;1.00;;;-1.70;99.90;;;-1.03;100.00;98849.91;5045879;28;20469;-75
2023/02/27 06:06:42;;;;;;;0.93;0.93;;;-1.70;99.90;;;-1.04;100.00;98860.25;5046354;28;20555;-75
2023/02/27 06:09:11;;;;;;;1.83;1.30;;;-1.70;99.90;;;-1.17;100.00;98849.09;5047305;28;20595;-75
2023/02/27 06:11:41;;;;;;;2.60;1.50;;;-1.90;99.90;;;-1.25;100.00;98861.59;5045651;28;20468;-76
2023/02/27 06:14:10;;;;;;;2.20;0.90;;;-2.00;99.90;;;-1.20;100.00;98862.09;5045537;28;20470;-75
2023/02/27 06:16:41;;;;;;;1.97;1.17;;;-2.00;99.90;;;-1.21;100.00;98870.72;5045345;28;20525;-75
2023/02/27 06:19:11;;;;;;;2.30;1.37;;;-2.00;99.90;;;-1.21;100.00;98871.53;5045296;28;20495;-75
2023/02/27 06:21:43;;;;;;;1.40;1.07;;;-1.90;99.90;;;-1.18;100.00;98871.34;5044531;28;20479;-75
2023/02/27 06:24:12;;;;;;;2.30;1.20;;;-1.90;99.90;;;-1.14;100.00;98869.41;5045194;28;20612;-75
2023/02/27 06:26:44;;;;;;;1.60;1.20;;;-1.80;99.90;;;-1.19;100.00;98874.03;5044354;28;20502;-75
2023/02/27 06:29:13;;;;;;;1.30;1.20;;;-1.90;99.90;;;-1.23;100.00;98878.50;5046218;28;20963;-75
2023/02/27 06:31:43;;;;;;;3.00;0.93;;;-1.90;99.90;;;-1.17;100.00;98882.44;5044891;28;20937;-75
2023/02/27 06:34:13;;;;;;;2.03;1.23;;;-1.90;99.90;;;-1.22;100.00;98880.19;5045678;28;20571;-75
2023/02/27 06:36:44;;;;;;;1.10;1.00;;;-1.90;99.90;;;-1.18;100.00;98885.94;5044254;28;20499;-76
2023/02/27 06:39:14;;;;;;;1.10;1.00;;;-1.80;99.90;;;-1.15;100.00;98893.44;5044899;28;20458;-75
2023/02/27 06:41:44;;;;;;;1.00;0.93;;;-1.90;99.90;;;-1.15;100.00;98890.88;5044540;28;20469;-75
2023/02/27 06:44:14;;;;;;;1.30;1.20;;;-1.80;99.90;;;-1.25;100.00;98882.91;5045593;28;20865;-75
2023/02/27 06:46:42;;;;;;;8.10;1.67;;;-1.90;99.90;;;-1.21;100.00;98899.75;5044826;28;20557;-76
2023/02/27 06:49:12;;;;;;;1.53;1.30;;;-1.70;99.90;;;-1.21;100.00;98896.38;5046407;28;20460;-75
2023/02/27 06:51:44;;;;;;;1.33;1.10;;;-1.80;99.90;;;-1.24;100.00;98889.69;5045463;28;20553;-75
2023/02/27 06:54:13;;;;;;;2.03;1.40;;;-1.90;99.90;;;-1.21;100.00;98901.50;5044497;28;21012;-75
2023/02/27 06:56:43;;;;;;;3.20;1.40;;;-1.80;99.90;;;-1.21;100.00;98898.94;5044467;28;20556;-75
2023/02/27 06:59:14;;;;;;;1.20;1.10;;;-1.80;99.90;;;-1.17;100.00;98908.09;5046126;28;20489;-76
2023/02/27 07:01:44;;;;;;;3.17;1.30;;;-1.90;99.90;;;-1.16;100.00;98899.50;5046356;28;20457;-75
2023/02/27 07:04:16;;;;;;;1.47;1.30;;;-1.80;99.90;;;-1.17;100.00;98903.78;5043675;28;20471;-75
2023/02/27 07:06:47;;;;;;;7.60;1.17;;;-1.80;99.90;;;-1.14;100.00;98910.47;5043791;28;20459;-75
2023/02/27 07:09:37;;;;;;;1.30;1.00;;;-1.80;99.90;;;-1.13;100.00;98907.81;5046234;28;20468;-74
2023/02/27 07:12:08;;;;;;;2.20;1.30;;;-1.80;99.90;;;-1.14;100.00;98910.47;5046264;28;20456;-76
2023/02/27 07:14:37;;;;;;;9.63;1.27;;;-1.80;99.90;;;-1.08;100.00;98918.63;5045670;28;20506;-75
2023/02/27 07:17:06;;;;;;;1.60;1.20;;;-1.70;99.90;;;-1.03;100.00;98926.03;5045478;28;20913;-75
2023/02/27 07:19:36;;;;;;;1.13;1.00;;;-1.70;99.90;;;-1.01;100.00;98921.66;5045643;28;20491;-75
2023/02/27 07:22:09;;;;;;;1.37;1.27;;;-1.70;99.90;;;-0.98;100.00;98918.91;5046359;28;20501;-75
2023/02/27 07:24:38;;;;;;;4.67;1.30;;;-1.70;99.90;;;-0.93;100.00;98924.56;5042698;28;20556;-75
2023/02/27 07:27:07;;;;;;;1.73;1.10;;;-1.50;99.90;;;-0.91;100.00;98925.31;5045930;28;20554;-75
2023/02/27 07:29:36;;;;;;;1.80;1.30;;;-1.60;99.90;;;-0.88;100.00;98920.00;5045825;28;21031;-75
2023/02/27 07:32:06;;;;;;;1.20;1.10;;;-1.50;99.90;;;-0.83;100.00;98920.50;5043346;28;20591;-76
2023/02/27 07:34:35;;;;;;;1.20;1.10;;;-1.50;99.90;;;-0.79;100.00;98921.97;5044601;28;20966;-75
2023/02/27 07:37:05;;;;;;;1.10;1.00;;;-1.40;99.70;;;-0.76;100.00;98924.34;5043711;28;21649;-75
2023/02/27 07:39:36;;;;;;;2.87;1.00;;;-1.40;99.60;;;-0.71;100.00;98927.47;5045399;28;21081;-75
2023/02/27 07:42:05;;;;;;;1.07;0.93;;;-1.30;99.70;;;-0.66;100.00;98925.44;5043727;28;21001;-76
2023/02/27 07:44:35;;;;;;;1.27;1.17;;;-1.20;99.50;;;-0.64;99.77;98908.19;5043907;28;20488;-76
2023/02/27 07:47:06;;;;;;;1.43;1.23;;;-1.20;99.40;;;-0.61;99.12;98925.97;5045922;28;20490;-76
2023/02/27 07:49:36;;;;;;;1.30;1.20;;;-1.20;99.40;;;-0.56;98.69;98926.53;5045969;28;20601;-75
2023/02/27 07:52:07;;;;;;;1.20;1.10;;;-1.10;99.30;;;-0.51;98.69;98927.06;5043124;28;20481;-76
2023/02/27 07:54:37;;;;;;;1.20;0.90;;;-1.00;99.20;;;-0.52;96.41;98938.25;5048389;28;20520;-75
2023/02/27 07:57:06;;;;;;;1.30;1.20;;;-1.00;98.80;;;-0.47;96.43;98919.16;5048739;28;20624;-75
2023/02/27 07:59:36;;;;;;;1.53;1.27;;;-1.00;99.00;;;-0.43;96.89;98921.44;5050094;28;20496;-75
2023/02/27 08:02:06;;;;;;;1.20;1.07;;;-1.00;99.00;;;-0.36;97.08;98927.00;5047974;28;20469;-76
2023/02/27 08:04:36;;;;;;;2.47;1.20;;;-0.90;99.10;;;-0.33;96.15;98932.78;5046540;28;20919;-75
2023/02/27 08:07:06;;;;;;;2.30;0.90;;;-0.90;98.90;;;-0.30;96.13;98934.31;5049322;28;20551;-76
2023/02/27 08:09:37;;;;;;;1.10;1.00;;;-0.80;99.10;;;-0.24;96.05;98933.91;5048172;28;20554;-76
2023/02/27 08:12:06;;;;;;;1.20;0.90;;;-0.70;99.10;;;-0.21;95.16;98923.47;5046815;28;20468;-75
2023/02/27 08:14:35;;;;;;;1.60;1.20;;;-0.70;98.70;;;-0.23;94.38;98928.69;5048746;28;20526;-76
2023/02/27 08:17:05;;;;;;;2.43;1.43;;;-0.60;98.60;;;-0.20;94.24;98923.38;5048717;28;20522;-75
2023/02/27 08:19:35;;;;;;;1.13;0.90;;;-0.70;98.80;;;-0.16;95.13;98918.84;5047501;28;20497;-75
2023/02/27 08:22:05;;;;;;;1.17;1.00;;;-0.70;98.90;;;-0.10;95.45;98926.16;5048099;28;20888;-76
2023/02/27 08:24:37;;;;;;;0.90;0.80;;;-0.60;98.80;;;-0.03;94.58;98929.97;5048008;28;20548;-76
2023/02/27 08:27:05;;;;;;;1.17;1.17;;;-0.50;98.80;;;-0.02;93.23;98921.34;5048934;28;20484;-76
2023/02/27 08:29:35;;;;;;;1.27;0.93;;;-0.50;98.50;;;0.00;93.49;98934.94;5048763;28;20975;-76
2023/02/27 08:32:04;;;;;;;1.10;0.80;;;-0.50;98.50;;;0.04;93.39;98931.22;5047690;28;20467;-76
2023/02/27 08:34:34;;;;;;;2.93;1.13;;;-0.30;98.70;;;0.05;93.55;98930.31;5047700;28;20495;-76
2023/02/27 08:37:03;;;;;;;1.77;1.17;;;-0.40;98.40;;;0.10;93.06;98937.75;5047757;28;20515;-76
2023/02/27 08:39:33;;;;;;;0.97;0.90;;;-0.50;98.50;;;0.12;91.98;98934.13;5046794;28;20548;-75
2023/02/27 08:42:02;;;;;;;2.00;1.13;;;-0.40;98.30;;;0.15;91.43;98933.09;5048219;28;20494;-75
2023/02/27 08:44:32;;;;;;;1.00;0.90;;;-0.30;98.40;;;0.16;91.81;98924.47;5046342;28;20516;-76
2023/02/27 08:47:02;;;;;;;1.53;1.00;;;-0.30;98.30;;;0.20;91.74;98933.66;5048593;28;20874;-75
2023/02/27 08:49:32;;;;;;;1.23;0.90;;;-0.30;98.20;;;0.23;91.30;98941.16;5049108;28;20528;-75
2023/02/27 08:52:02;;;;;;;0.80;0.80;;;-0.30;98.20;;;0.28;90.34;98944.22;5048343;28;20528;-76
2023/02/27 08:54:32;;;;;;;0.97;0.90;;;-0.20;97.90;;;0.28;90.32;98933.94;5047485;28;21241;-76
2023/02/27 08:57:03;;;;;;;0.80;0.80;;;-0.20;98.10;;;0.32;90.57;98936.22;5048308;28;20589;-76
2023/02/27 08:59:32;;;;;;;1.07;1.00;;;-0.10;98.20;;;0.38;90.70;98940.97;5048897;28;20551;-75
2023/02/27 09:02:02;;;;;;;1.33;1.10;;;-0.10;98.30;;;0.40;89.73;98938.31;5046264;28;20868;-76
2023/02/27 09:04:31;;;;;;;1.20;1.10;;;-0.10;98.00;;;0.43;90.36;98944.06;5045081;28;20984;-75
2023/02/27 09:07:01;;;;;;;0.80;0.80;;;0.00;98.20;;;0.45;89.34;98934.47;5046186;28;20956;-75
2023/02/27 09:09:31;;;;;;;0.80;0.80;;;0.00;97.80;;;0.48;89.16;98933.47;5046282;28;20532;-76
2023/02/27 09:12:02;;;;;;;1.40;1.10;;;-0.10;98.10;;;0.51;89.72;98951.28;5045160;28;20520;-76
2023/02/27 09:14:33;;;;;;;1.90;1.43;;;0.00;98.00;;;0.56;89.24;98940.66;5047914;28;20498;-75
2023/02/27 09:17:03;;;;;;;3.77;1.50;;;0.00;97.90;;;0.60;88.24;98939.53;5047594;28;20857;-75
2023/02/27 09:19:32;;;;;;;1.40;1.07;;;0.10;97.90;;;0.63;88.05;98935.00;5048357;28;20471;-75
2023/02/27 09:22:01;;;;;;;1.03;1.03;;;0.10;97.90;;;0.69;88.32;98939.78;5045031;28;20463;-75
2023/02/27 09:24:31;;;;;;;2.07;1.03;;;0.30;97.90;;;0.72;89.08;98942.13;5048084;28;20470;-75
2023/02/27 09:27:03;;;;;;;3.17;1.07;;;0.40;98.00;;;0.73;88.17;98946.31;5048188;28;21024;-76
2023/02/27 09:29:33;;;;;;;3.37;1.10;;;0.30;97.60;;;0.75;87.77;98953.97;5045555;28;20489;-76
2023/02/27 09:32:03;;;;;;;1.37;1.00;;;0.30;97.70;;;0.77;86.95;98952.91;5046470;28;20470;-76
2023/02/27 09:34:33;;;;;;;1.23;1.13;;;0.30;97.60;;;0.80;87.04;98951.91;5046678;28;20462;-75
2023/02/27 09:37:04;;;;;;;0.97;0.90;;;0.30;97.50;;;0.82;84.97;98950.03;5045088;28;20480;-75
2023/02/27 09:39:35;;;;;;;1.30;1.20;;;0.30;97.10;;;0.82;85.10;98950.03;5045805;28;20477;-75
2023/02/27 09:42:14;;;;;;;1.80;1.57;;;0.30;97.10;;;0.85;84.91;98954.97;5046616;28;20472;-76
2023/02/27 09:44:47;;;;;;;1.27;1.17;;;0.30;97.20;;;0.89;85.03;98943.56;5044512;28;20552;-76
2023/02/27 09:47:25;;;;;;;1.07;1.07;;;0.40;97.30;;;0.92;86.10;98935.63;5047253;28;20467;-77
2023/02/27 09:50:02;;;;;;;1.20;1.10;;;0.40;97.50;;;0.95;85.55;98937.97;5045954;28;20495;-75
2023/02/27 09:52:36;;;;;;;1.03;0.97;;;0.40;97.40;;;1.01;86.27;98940.13;5045946;28;20449;-76
2023/02/27 09:55:11;;;;;;;1.10;1.00;;;0.50;97.50;;;1.05;85.98;98938.16;5045900;28;20458;-76
2023/02/27 09:57:55;;;;;;;1.00;0.90;;;0.50;97.40;;;1.10;85.36;98949.81;5048059;28;20465;-75
2023/02/27 10:00:44;;;;;;;1.10;1.03;;;0.60;97.10;;;1.14;83.18;98947.84;5044266;28;20973;-75
2023/02/27 10:03:43;;;;;;;2.50;1.20;;;0.60;96.80;;;1.15;82.34;98952.06;5046324;28;20501;-75
2023/02/27 10:06:25;;;;;;;1.63;1.10;;;0.70;96.70;;;1.16;82.76;98951.97;5047458;28;20498;-75
2023/02/27 10:09:16;;;;;;;1.37;1.27;;;0.60;96.60;;;1.21;83.05;98949.91;5045874;28;21083;-75
2023/02/27 10:12:04;;;;;;;0.90;0.90;;;0.60;97.00;;;1.25;82.31;98942.78;5043177;28;20563;-75
2023/02/27 10:14:44;;;;;;;1.77;0.90;;;0.70;96.90;;;1.29;81.82;98951.94;5045908;28;20529;-75
2023/02/27 10:17:21;;;;;;;8.20;1.07;;;0.70;96.60;;;1.33;81.02;98950.78;5045652;28;20446;-75
2023/02/27 10:19:54;;;;;;;3.20;2.20;;;0.80;96.60;;;1.35;81.99;98954.94;5044618;28;20553;-76
2023/02/27 10:22:35;;;;;;;7.63;1.60;;;0.80;96.80;;;1.37;81.92;98957.38;5046085;28;20475;-76
2023/02/27 10:25:12;;;;;;;0.90;0.90;;;0.90;96.70;;;1.43;81.21;98957.78;5044734;28;20964;-76
2023/02/27 10:28:11;;;;;;;2.50;1.10;;;1.00;96.60;;;1.48;80.58;98955.72;5046899;28;20508;-75
2023/02/27 10:30:48;;;;;;;1.97;1.30;;;1.00;96.60;;;1.51;80.67;98960.66;5046149;28;20498;-75
2023/02/27 10:33:29;;;;;;;1.63;1.17;;;1.00;96.30;;;1.53;79.56;98963.91;5044851;28;20538;-76
2023/02/27 10:35:58;;;;;;;4.67;1.10;;;0.90;95.70;;;1.56;78.27;98962.06;5045959;28;20520;-75
2023/02/27 10:39:00;;;;;;;1.33;0.90;;;1.00;95.80;;;1.63;78.13;98968.44;5106213;27;20583;-76
2023/02/27 10:41:31;;;;;;;1.57;1.40;;;1.10;96.00;;;1.64;78.76;98963.16;5096202;28;20472;-76
2023/02/27 10:44:01;;;;;;;1.50;1.17;;;1.00;96.20;;;1.69;79.26;98965.44;5105894;27;21069;-76
2023/02/27 10:46:36;;;;;;;1.23;1.13;;;1.20;96.40;;;1.68;79.01;98968.94;5118191;27;20992;-76
2023/02/27 10:49:16;;;;;;;3.30;1.33;;;1.10;96.30;;;1.73;79.03;98966.88;5117776;27;20880;-76
2023/02/27 10:52:04;;;;;;;1.77;1.20;;;1.30;96.40;;;1.75;79.08;98965.81;5116790;27;20467;-76
2023/02/27 10:54:36;;;;;;;23.13;1.67;;;1.30;96.30;;;1.80;76.71;98980.97;5115346;27;20951;-75
2023/02/27 10:57:26;;;;;;;2.03;1.30;;;1.40;95.60;;;1.80;73.99;98983.53;5117327;27;20509;-76
2023/02/27 10:59:58;;;;;;;1.43;1.20;;;1.40;95.00;;;1.79;73.84;98969.81;5114988;27;20460;-76